createdAt,value
2019-01-15T00:05:14.961Z,38
2019-01-15T00:15:18.414Z,39
2019-01-15T00:25:21.841Z,40
2019-01-15T00:35:25.267Z,40
2019-01-15T00:45:28.691Z,39
2019-01-15T00:55:32.133Z,39
2019-01-15T01:05:35.559Z,39
2019-01-15T01:15:38.965Z,39
2019-01-15T01:25:42.389Z,40
2019-01-15T01:35:45.816Z,39
2019-01-15T01:45:49.222Z,39
2019-01-15T01:55:52.627Z,39
2019-01-15T02:05:56.034Z,38
2019-01-15T02:15:59.458Z,39
2019-01-15T02:26:02.846Z,39
2019-01-15T02:36:06.276Z,39
2019-01-15T02:46:09.727Z,38
2019-01-15T02:56:13.134Z,39
2019-01-15T03:06:16.565Z,39
2019-01-15T03:16:19.966Z,40
2019-01-15T03:26:23.417Z,39
2019-01-15T03:36:26.934Z,40
2019-01-15T03:46:30.339Z,39
2019-01-15T03:56:33.748Z,39
2019-01-15T04:06:37.159Z,40
2019-01-15T04:16:40.575Z,40
2019-01-15T04:26:44.008Z,41
2019-01-15T04:36:47.417Z,42
2019-01-15T04:46:50.843Z,41
2019-01-15T04:56:54.287Z,40
2019-01-15T05:06:57.721Z,41
2019-01-15T05:17:01.142Z,41
2019-01-15T05:27:04.681Z,41
2019-01-15T05:37:08.126Z,40
2019-01-15T05:47:11.518Z,41
2019-01-15T05:57:14.952Z,41
2019-01-15T06:07:18.403Z,44
2019-01-15T06:17:21.837Z,42
2019-01-15T06:27:25.272Z,44
2019-01-15T06:37:28.722Z,44
2019-01-15T06:47:32.152Z,42
2019-01-15T06:57:36.556Z,43
2019-01-15T07:07:39.997Z,43
2019-01-15T07:17:43.392Z,44
2019-01-15T07:27:46.813Z,44
2019-01-15T07:37:50.245Z,45
2019-01-15T07:47:53.675Z,45
2019-01-15T07:57:58.119Z,43
2019-01-15T08:08:01.536Z,45
2019-01-15T08:18:04.959Z,44
2019-01-15T08:28:08.429Z,42
2019-01-15T08:38:11.857Z,41
2019-01-15T08:48:15.306Z,41
2019-01-15T08:58:18.732Z,42
2019-01-15T09:08:22.224Z,42
2019-01-15T09:18:25.615Z,42
2019-01-15T09:28:29.015Z,43
2019-01-15T09:38:32.425Z,42
2019-01-15T09:48:35.849Z,41
2019-01-15T09:58:39.268Z,41
2019-01-15T10:08:42.699Z,41
2019-01-15T10:18:46.100Z,42
2019-01-15T10:28:49.520Z,42
2019-01-15T10:38:52.964Z,42
2019-01-15T10:48:56.374Z,42
2019-01-15T10:58:59.806Z,42
2019-01-15T11:09:03.261Z,42
2019-01-15T11:19:06.699Z,42
2019-01-15T11:29:10.126Z,41
2019-01-15T11:39:13.529Z,42
2019-01-15T11:49:16.946Z,42
2019-01-15T11:59:20.343Z,42
2019-01-15T12:09:23.767Z,42
2019-01-15T12:19:27.202Z,42
2019-01-15T12:29:30.661Z,42
2019-01-15T12:39:34.089Z,42
2019-01-15T12:49:37.508Z,41
2019-01-15T12:59:40.906Z,47
2019-01-15T13:09:44.348Z,42
2019-01-15T13:19:47.751Z,39
2019-01-15T13:29:52.157Z,39
2019-01-15T13:39:55.563Z,40
2019-01-15T13:49:59.971Z,39
2019-01-15T14:00:03.401Z,39
2019-01-15T14:10:06.824Z,40
2019-01-15T14:20:10.252Z,39
2019-01-15T14:30:13.643Z,40
2019-01-15T14:40:17.045Z,40
2019-01-15T14:50:20.464Z,40
2019-01-15T15:00:23.894Z,41
2019-01-15T15:10:27.334Z,42
2019-01-15T15:20:30.759Z,42
2019-01-15T15:30:34.193Z,42
2019-01-15T15:40:37.611Z,43
2019-01-15T15:50:41.048Z,43
2019-01-15T16:00:44.492Z,42
2019-01-15T16:10:47.878Z,42
2019-01-15T16:20:51.313Z,44
2019-01-15T16:30:54.801Z,42
2019-01-15T16:40:58.225Z,43
2019-01-15T16:51:01.668Z,43
2019-01-15T17:01:05.073Z,45
2019-01-15T17:11:08.493Z,45
2019-01-15T17:21:11.916Z,46
2019-01-15T17:31:15.376Z,47
2019-01-15T17:41:18.795Z,48
2019-01-15T17:51:22.239Z,48
2019-01-15T18:01:25.672Z,47
2019-01-15T18:11:29.096Z,47
2019-01-15T18:21:32.530Z,48
2019-01-15T18:31:35.964Z,49
2019-01-15T18:41:39.359Z,47
2019-01-15T18:51:42.796Z,46
2019-01-15T19:01:46.206Z,46
2019-01-15T19:11:49.641Z,50
2019-01-15T19:21:53.110Z,49
2019-01-15T19:31:56.556Z,49
2019-01-15T19:41:59.976Z,48
2019-01-15T19:52:03.370Z,45
2019-01-15T20:02:06.761Z,47
2019-01-15T20:12:10.186Z,48
2019-01-15T20:22:13.575Z,47
2019-01-15T20:32:17.003Z,47
2019-01-15T20:42:20.428Z,47
2019-01-15T20:52:23.867Z,47
2019-01-15T21:02:27.283Z,47
2019-01-15T21:12:30.699Z,46
2019-01-15T21:22:34.113Z,46
2019-01-15T21:32:37.518Z,46
2019-01-15T21:42:40.927Z,44
2019-01-15T21:52:48.247Z,47
2019-01-15T22:02:51.655Z,45
2019-01-15T22:12:55.058Z,46
2019-01-15T22:22:58.485Z,46
2019-01-15T22:33:01.910Z,46
2019-01-15T22:43:05.336Z,44
2019-01-15T22:53:08.769Z,42
2019-01-15T23:03:12.221Z,42
2019-01-15T23:13:15.641Z,42
2019-01-15T23:23:19.037Z,43
2019-01-15T23:33:22.473Z,42
2019-01-15T23:43:25.866Z,42
2019-01-15T23:53:29.250Z,40
